Latest Weather Observations for Edithburgh

IDS60801

Issued at 9:31 am CST Sunday 31 July 2016 (issued every 30 minutes, with the page automatically refreshed every 10 minutes)

About weather observations | Map of weather stations | Latest weather observations for SA | Other Formats
Station Details ID: 022046 Name: EDITHBURGH Lat: -35.11 Lon: 137.74 Height: 6.0 m
Data from the previous 72 hours. | See also: Recent months at Edithburgh
Date/Time
CST
Temp
°C
App
Temp
°C
Dew
Point
°C
Rel
Hum
%
Delta-T
°C
Wind Press
QNH
hPa
Press
MSL
hPa
Rain since
9am
mm
Dir  Spd
km/h
Gust
km/h
Spd
kts
Gust
kts
31/09:30am 13.4 12.0 12.1 92 0.7 NNW 11 13 6 7 1015.9 1015.9 0.0
31/09:00am 11.9 10.8 10.5 91 0.7 NNW 7 11 4 6 1016.0 1016.0 1.8
31/08:30am 9.5 7.3 8.0 90 0.7 NNW 9 11 5 6 1016.1 1016.1 1.8
31/08:00am 7.9 6.0 6.6 91 0.6 NW 6 9 3 5 1015.8 1015.8 1.8
31/07:30am 7.0 4.7 5.9 93 0.5 WNW 7 9 4 5 1015.7 1015.7 1.8
31/07:00am 7.2 4.6 5.9 91 0.6 NW 9 9 5 5 1015.4 1015.4 1.8
31/06:30am 6.9 3.8 5.5 91 0.6 NW 11 13 6 7 1015.5 1015.5 1.8
31/06:00am 7.4 4.5 6.3 93 0.5 NNW 11 13 6 7 1015.2 1015.2 1.6
31/05:30am 6.9 3.8 5.5 91 0.6 NNW 11 11 6 6 1015.2 1015.2 1.6
31/05:00am 7.3 4.3 6.0 91 0.6 NW 11 11 6 6 1015.2 1015.2 1.6
31/04:30am 8.0 6.0 6.9 93 0.5 NW 7 11 4 6 1015.2 1015.2 1.6
31/04:00am 8.0 6.0 6.9 93 0.5 NW 7 9 4 5 1015.1 1015.1 1.6
31/03:30am 8.7 6.8 7.4 91 0.6 NW 7 9 4 5 1015.3 1015.3 1.6
31/03:00am 9.0 6.8 7.7 91 0.6 NW 9 11 5 6 1015.6 1015.6 1.6
31/02:30am 9.1 7.0 8.1 93 0.5 NW 9 11 5 6 1015.5 1015.5 1.6
31/02:00am 9.9 8.0 8.9 93 0.5 WNW 9 9 5 5 1015.4 1015.4 1.6
31/01:30am 11.0 9.3 9.8 92 0.6 WNW 9 11 5 6 1015.4 1015.4 1.6
31/01:00am 11.2 9.5 10.0 92 0.6 W 9 13 5 7 1015.5 1015.5 1.6
31/12:30am 12.3 10.5 11.0 92 0.7 W 11 13 6 7 1015.8 1015.8 1.6
31/12:00am 13.1 11.6 11.8 92 0.7 WNW 11 15 6 8 1015.9 1015.9 1.6
 
Date/Time
CST
Temp
°C
App
Temp
°C
Dew
Point
°C
Rel
Hum
%
Delta-T
°C
Wind Press
QNH
hPa
Press
MSL
hPa
Rain since
9am
mm
Dir  Spd
km/h
Gust
km/h
Spd
kts
Gust
kts
30/11:30pm 13.4 11.5 11.7 89 0.9 WNW 13 17 7 9 1016.0 1016.0 1.6
30/11:00pm 13.5 11.5 11.4 87 1.1 WNW 13 17 7 9 1015.7 1015.7 1.6
30/10:30pm 13.5 11.0 11.2 86 1.2 NW 15 17 8 9 1015.6 1015.6 1.6
30/10:00pm 13.6 10.6 10.7 82 1.5 NW 17 20 9 11 1015.4 1015.4 1.6
30/09:30pm 13.6 10.6 10.5 81 1.6 NW 17 22 9 12 1015.4 1015.4 1.6
30/09:00pm 13.2 10.5 10.5 84 1.4 NW 15 17 8 9 1015.1 1015.1 1.6
30/08:30pm 12.8 10.8 10.1 84 1.4 NNW 11 13 6 7 1014.9 1014.9 1.6
30/08:00pm 12.6 10.9 9.9 83 1.4 N 9 13 5 7 1014.3 1014.3 1.6
30/07:30pm 11.8 10.0 9.4 85 1.2 NNW 9 11 5 6 1014.2 1014.2 1.6
30/07:00pm 12.3 10.1 9.5 83 1.4 NNW 11 13 6 7 1013.8 1013.8 1.6
30/06:30pm 12.9 9.7 10.0 82 1.5 NNW 17 22 9 12 1013.7 1013.7 1.6
30/06:00pm 13.2 9.7 10.1 81 1.6 NW 19 24 10 13 1013.6 1013.6 1.6
30/05:30pm 13.2 9.5 10.3 82 1.5 NNW 20 24 11 13 1013.3 1013.3 1.6
30/05:00pm 13.2 9.5 10.3 82 1.5 NW 20 26 11 14 1013.3 1013.3 1.6
30/04:30pm 13.5 10.0 10.2 80 1.7 NW 19 26 10 14 1013.3 1013.3 0.6
30/04:00pm 14.2 9.9 9.3 72 2.5 NNW 22 28 12 15 1012.9 1012.9 0.0
30/03:30pm 15.7 10.2 7.5 58 4.1 NNW 26 35 14 19 1012.5 1012.5 0.0
30/03:00pm 15.7 9.7 7.2 57 4.2 NNW 28 35 15 19 1012.4 1012.4 0.0
30/02:30pm 15.7 10.1 7.2 57 4.2 NNW 26 37 14 20 1012.2 1012.2 0.0
30/02:00pm 16.3 9.8 6.5 52 4.8 N 30 43 16 23 1011.7 1011.7 0.0
30/01:30pm 15.7 8.9 6.7 55 4.4 NNW 32 43 17 23 1012.2 1012.2 0.0
30/01:00pm 16.1 7.8 6.0 51 4.9 NNW 39 50 21 27 1012.7 1012.7 0.0
30/12:30pm 16.1 8.5 6.0 51 4.9 NNW 35 50 19 27 1013.3 1013.3 0.0
30/12:00pm 16.0 9.0 6.1 52 4.8 NNW 32 44 17 24 1014.2 1014.2 0.0
30/11:30am 16.0 9.2 7.1 55 4.4 N 32 44 17 24 1014.6 1014.6 0.0
30/11:00am 15.9 8.9 6.7 54 4.5 N 33 46 18 25 1014.9 1014.9 0.0
30/10:30am 15.4 8.4 6.8 56 4.2 NNW 33 46 18 25 1015.2 1015.2 0.0
30/10:00am 14.0 8.3 6.8 62 3.5 N 26 39 14 21 1015.7 1015.7 0.0
30/09:30am 13.1 8.5 6.4 64 3.2 N 20 32 11 17 1016.2 1016.2 0.0
30/09:00am 12.6 8.1 6.0 64 3.1 N 19 28 10 15 1016.1 1016.1 -
30/08:30am 11.4 7.2 5.8 68 2.6 N 17 22 9 12 1016.2 1016.2 -
30/08:00am 10.9 6.7 5.7 70 2.4 N 17 28 9 15 1016.5 1016.6 -
30/07:30am 10.5 5.9 5.5 71 2.3 N 19 24 10 13 1016.7 1016.8 -
30/07:00am 10.7 6.5 5.7 71 2.3 N 17 24 9 13 1016.8 1016.9 -
30/06:30am 10.9 6.4 5.9 71 2.3 N 19 26 10 14 1016.9 1017.0 -
30/06:00am 11.3 7.7 6.6 73 2.2 N 15 24 8 13 1017.1 1017.2 -
30/05:30am 11.6 7.5 6.3 70 2.5 N 17 24 9 13 1017.1 1017.2 -
30/05:00am 11.4 8.1 6.5 72 2.3 N 13 20 7 11 1017.5 1017.6 -
30/04:30am 11.5 7.9 6.6 72 2.3 N 15 20 8 11 1017.9 1018.0 -
30/04:00am 11.5 8.2 6.6 72 2.3 N 13 19 7 10 1018.1 1018.2 -
30/03:30am 11.3 8.0 6.4 72 2.3 N 13 19 7 10 1018.2 1018.3 -
30/03:00am 11.3 8.5 7.1 75 2.0 NNE 11 17 6 9 1018.8 1018.9 0.0
30/02:30am 11.6 8.5 7.4 75 2.0 NNE 13 19 7 10 1019.2 1019.3 -
30/02:00am 11.7 8.2 7.3 74 2.1 NNE 15 20 8 11 1019.5 1019.6 -
30/01:30am 11.6 9.4 7.9 78 1.8 NNE 9 15 5 8 1020.0 1020.0 -
30/01:00am 11.6 9.5 8.3 80 1.6 N 9 13 5 7 1020.3 1020.3 -
30/12:30am 11.5 9.0 8.4 81 1.5 NNE 11 15 6 8 1020.5 1020.5 -
30/12:00am 11.4 9.5 9.0 85 1.2 N 9 13 5 7 1021.0 1021.0 -
 
Date/Time
CST
Temp
°C
App
Temp
°C
Dew
Point
°C
Rel
Hum
%
Delta-T
°C
Wind Press
QNH
hPa
Press
MSL
hPa
Rain since
9am
mm
Dir  Spd
km/h
Gust
km/h
Spd
kts
Gust
kts
29/11:30pm 11.2 9.2 8.8 85 1.2 N 9 11 5 6 1021.3 1021.3 -
29/11:00pm 10.6 8.6 8.6 87 1.0 N 9 13 5 7 1021.5 1021.5 -
29/10:30pm 9.7 8.1 8.2 90 0.7 NNW 6 7 3 4 1021.9 1021.9 -
29/10:00pm 9.9 8.4 8.5 91 0.7 N 6 7 3 4 1022.1 1022.1 -
29/09:30pm 10.0 9.0 9.0 93 0.5 N 4 6 2 3 1022.0 1022.0 -
29/09:00pm 10.6 9.5 9.8 95 0.4 N 6 7 3 4 1022.0 1022.0 -
29/08:30pm 10.4 9.2 9.4 93 0.5 N 6 7 3 4 1022.1 1022.1 -
29/08:00pm 9.8 9.5 8.8 93 0.5 CALM 0 0 0 0 1022.3 1022.3 -
29/07:30pm 10.1 8.8 9.3 95 0.4 NW 6 6 3 3 1022.3 1022.3 -
29/07:00pm 10.3 9.4 9.3 93 0.5 NNW 4 4 2 2 1022.2 1022.2 -
29/06:30pm 10.9 10.1 9.7 92 0.6 N 4 6 2 3 1022.0 1022.0 -
29/06:00pm 11.6 10.6 10.4 92 0.6 N 6 7 3 4 1022.2 1022.2 -
29/05:30pm 12.0 10.8 10.4 90 0.8 NNE 7 13 4 7 1021.8 1021.8 -
29/05:00pm 12.1 10.1 10.3 89 0.9 NE 11 17 6 9 1021.8 1021.8 -
29/04:30pm 12.4 10.0 10.1 86 1.2 NNE 13 19 7 10 1022.0 1022.0 -
29/04:00pm 12.6 10.2 10.1 85 1.3 NE 13 19 7 10 1021.9 1021.9 -
29/03:30pm 12.7 10.1 9.5 81 1.6 NE 13 19 7 10 1022.4 1022.4 -
29/03:00pm 12.9 10.3 9.5 80 1.7 NE 13 17 7 9 1022.5 1022.5 -
29/02:30pm 13.1 11.0 9.8 80 1.7 NNE 11 19 6 10 1022.5 1022.5 -
29/02:00pm 15.2 12.3 9.6 69 2.9 NNW 15 19 8 10 1022.7 1022.7 -
29/01:30pm 15.2 12.0 9.8 70 2.8 NW 17 22 9 12 1023.0 1023.0 -
29/01:00pm 15.0 11.7 9.6 70 2.8 NW 17 22 9 12 1023.6 1023.6 0.0
29/12:30pm 14.2 11.5 10.3 77 2.0 NNW 15 20 8 11 1024.1 1024.1 0.0
29/12:00pm 14.0 11.8 10.7 80 1.7 NW 13 22 7 12 1024.7 1024.7 0.0
29/11:30am 13.8 11.8 10.3 79 1.8 NNW 11 17 6 9 1024.6 1024.6 0.0
29/11:00am 13.8 12.3 10.5 80 1.7 N 9 19 5 10 1025.0 1025.0 0.0
29/10:30am 12.9 11.3 10.2 84 1.4 NNW 9 13 5 7 1025.3 1025.3 0.0
29/10:00am 12.0 9.9 9.6 85 1.2 N 11 15 6 8 1025.4 1025.4 0.0
29/09:30am 11.2 8.8 8.8 85 1.2 N 11 15 6 8 1025.5 1025.5 0.0
29/09:00am 11.1 9.5 8.7 85 1.2 N 7 9 4 5 1025.7 1025.7 -
29/08:30am 10.6 9.1 8.3 86 1.1 N 6 9 3 5 1025.5 1025.5 -
29/08:00am 10.5 9.4 8.4 87 1.0 N 4 7 2 4 1025.6 1025.6 -
29/07:30am 10.5 9.4 8.4 87 1.0 N 4 7 2 4 1025.3 1025.3 -
29/07:00am 10.4 9.6 8.3 87 1.0 N 2 4 1 2 1025.1 1025.1 -
29/06:30am 10.0 7.9 8.1 88 0.9 NNE 9 11 5 6 1024.3 1024.3 -
29/06:00am 9.7 7.9 7.8 88 0.9 N 7 13 4 7 1024.2 1024.2 -
29/05:30am 9.8 7.6 7.9 88 0.9 N 9 13 5 7 1024.1 1024.1 -
29/05:00am 10.9 9.4 9.3 90 0.8 N 7 9 4 5 1024.3 1024.3 -
29/04:30am 11.0 9.2 9.4 90 0.8 NNW 9 11 5 6 1024.5 1024.5 -
29/04:00am 10.9 9.4 9.3 90 0.8 NW 7 7 4 4 1025.0 1025.0 -
29/03:30am 10.9 9.0 9.1 89 0.9 NW 9 13 5 7 1024.8 1024.8 -
29/03:00am 10.9 7.9 9.1 89 0.9 W 15 20 8 11 1024.9 1024.9 2.0
29/02:30am 11.1 8.5 9.3 89 0.9 W 13 17 7 9 1025.3 1025.3 -
29/02:00am 10.9 8.7 9.3 90 0.8 WNW 11 15 6 8 1025.4 1025.4 -
29/01:30am 10.7 8.1 9.3 91 0.7 NNW 13 15 7 8 1025.2 1025.2 -
29/01:00am 10.7 8.5 9.3 91 0.7 NW 11 15 6 8 1025.7 1025.7 -
29/12:30am 10.7 8.9 9.5 92 0.6 NNW 9 11 5 6 1025.6 1025.6 -
29/12:00am 11.2 9.6 10.2 94 0.5 N 9 13 5 7 1025.9 1025.9 -
 
Date/Time
CST
Temp
°C
App
Temp
°C
Dew
Point
°C
Rel
Hum
%
Delta-T
°C
Wind Press
QNH
hPa
Press
MSL
hPa
Rain since
9am
mm
Dir  Spd
km/h
Gust
km/h
Spd
kts
Gust
kts
28/11:30pm 11.3 10.1 10.3 94 0.5 WNW 7 11 4 6 1026.4 1026.4 -
28/11:00pm 11.3 10.1 10.3 94 0.5 NW 7 11 4 6 1026.4 1026.4 -
28/10:30pm 11.3 9.3 10.3 94 0.5 WNW 11 17 6 9 1026.5 1026.5 -
28/10:00pm 11.3 9.3 10.3 94 0.5 N 11 17 6 9 1026.3 1026.3 -
28/09:30pm 11.2 8.7 9.8 91 0.7 NNW 13 17 7 9 1026.4 1026.4 -
28/09:00pm 11.3 8.8 9.7 90 0.8 N 13 19 7 10 1026.6 1026.6 -
28/08:30pm 11.3 8.4 9.5 89 0.9 N 15 19 8 10 1026.7 1026.7 -
28/08:00pm 11.3 8.7 9.5 89 0.9 N 13 17 7 9 1026.8 1026.8 -
28/07:30pm 11.4 9.2 9.2 86 1.1 N 11 15 6 8 1026.9 1026.9 -
28/07:00pm 11.3 9.0 9.1 86 1.1 NNW 11 15 6 8 1027.1 1027.1 -
28/06:30pm 11.3 8.3 9.1 86 1.1 NNW 15 19 8 10 1027.1 1027.1 -
28/06:00pm 11.4 8.4 9.2 86 1.1 NNW 15 20 8 11 1026.9 1026.9 -
28/05:30pm 11.6 8.5 8.8 83 1.4 NNW 15 20 8 11 1026.8 1026.8 -
28/05:00pm 12.0 8.1 8.5 79 1.7 NW 19 26 10 14 1026.8 1026.8 -
28/04:30pm 12.6 8.4 8.1 74 2.2 NW 20 28 11 15 1026.9 1026.9 -
28/04:00pm 13.0 8.0 7.9 71 2.5 WNW 24 30 13 16 1026.7 1026.7 -
28/03:30pm 13.3 8.0 8.5 72 2.4 NW 26 33 14 18 1026.6 1026.6 -
28/03:00pm 13.7 - 8.9 73 2.4 - - - - - 1026.6 1026.6 -
28/01:00pm 14.9 10.3 8.3 64 3.3 NW 22 30 12 16 1027.3 1027.3 -
28/12:30pm 14.9 10.8 8.5 65 3.2 NW 20 28 11 15 1027.5 1027.5 -
28/12:00pm 14.4 10.2 8.2 66 3.1 NW 20 26 11 14 1027.7 1027.7 -

Other Formats:

Comma delimited format used in spreadsheet applications
http://www.bom.gov.au/fwo/IDS60801/IDS60801.94809.axf

JavaScript Object Notation format (JSON) in row-major order
http://www.bom.gov.au/fwo/IDS60801/IDS60801.94809.json